sensor_id;sensor_type;location;lat;lon;timestamp;P1;durP1;ratioP1;P2;durP2;ratioP2
67979;SDS011;54760;47.490;19.030;2023-05-10T00:01:31;2.70;;;1.90;;
67979;SDS011;54760;47.490;19.030;2023-05-10T00:03:56;4.50;;;1.92;;
67979;SDS011;54760;47.490;19.030;2023-05-10T00:06:22;3.83;;;2.22;;
67979;SDS011;54760;47.490;19.030;2023-05-10T00:08:47;4.53;;;2.20;;
67979;SDS011;54760;47.490;19.030;2023-05-10T00:11:12;3.10;;;2.28;;
67979;SDS011;54760;47.490;19.030;2023-05-10T00:13:38;5.15;;;2.42;;
67979;SDS011;54760;47.490;19.030;2023-05-10T00:16:03;2.45;;;2.08;;
67979;SDS011;54760;47.490;19.030;2023-05-10T00:18:29;3.78;;;2.30;;
67979;SDS011;54760;47.490;19.030;2023-05-10T00:20:54;3.95;;;2.70;;
67979;SDS011;54760;47.490;19.030;2023-05-10T00:23:20;4.70;;;2.30;;
67979;SDS011;54760;47.490;19.030;2023-05-10T00:25:45;3.12;;;2.53;;
67979;SDS011;54760;47.490;19.030;2023-05-10T00:28:10;3.20;;;2.50;;
67979;SDS011;54760;47.490;19.030;2023-05-10T00:30:36;2.62;;;2.40;;
67979;SDS011;54760;47.490;19.030;2023-05-10T00:33:01;4.00;;;2.47;;
67979;SDS011;54760;47.490;19.030;2023-05-10T00:35:27;4.15;;;2.30;;
67979;SDS011;54760;47.490;19.030;2023-05-10T00:37:53;2.62;;;2.30;;
67979;SDS011;54760;47.490;19.030;2023-05-10T00:40:18;4.50;;;2.42;;
67979;SDS011;54760;47.490;19.030;2023-05-10T00:42:44;6.32;;;2.60;;
67979;SDS011;54760;47.490;19.030;2023-05-10T00:45:09;9.90;;;2.65;;
67979;SDS011;54760;47.490;19.030;2023-05-10T00:47:36;3.53;;;2.20;;
67979;SDS011;54760;47.490;19.030;2023-05-10T00:50:01;6.60;;;2.40;;
67979;SDS011;54760;47.490;19.030;2023-05-10T00:52:28;6.93;;;2.30;;
67979;SDS011;54760;47.490;19.030;2023-05-10T00:54:54;4.60;;;2.40;;
67979;SDS011;54760;47.490;19.030;2023-05-10T00:57:19;3.80;;;2.60;;
67979;SDS011;54760;47.490;19.030;2023-05-10T00:59:45;3.58;;;2.40;;
67979;SDS011;54760;47.490;19.030;2023-05-10T01:02:11;2.90;;;2.47;;
67979;SDS011;54760;47.490;19.030;2023-05-10T01:04:38;2.62;;;2.37;;
67979;SDS011;54760;47.490;19.030;2023-05-10T01:07:04;5.37;;;2.45;;
67979;SDS011;54760;47.490;19.030;2023-05-10T01:09:29;7.57;;;3.00;;
67979;SDS011;54760;47.490;19.030;2023-05-10T01:11:55;4.12;;;2.80;;
67979;SDS011;54760;47.490;19.030;2023-05-10T01:14:21;3.50;;;2.55;;
67979;SDS011;54760;47.490;19.030;2023-05-10T01:16:47;4.10;;;2.70;;
67979;SDS011;54760;47.490;19.030;2023-05-10T01:19:18;4.80;;;2.45;;
67979;SDS011;54760;47.490;19.030;2023-05-10T01:22:06;4.40;;;2.50;;
67979;SDS011;54760;47.490;19.030;2023-05-10T01:24:51;6.90;;;2.83;;
67979;SDS011;54760;47.490;19.030;2023-05-10T01:35:37;5.47;;;2.85;;
67979;SDS011;54760;47.490;19.030;2023-05-10T01:43:39;4.72;;;2.67;;
67979;SDS011;54760;47.490;19.030;2023-05-10T01:46:30;3.17;;;2.67;;
67979;SDS011;54760;47.490;19.030;2023-05-10T01:49:00;3.75;;;2.78;;
67979;SDS011;54760;47.490;19.030;2023-05-10T01:51:30;7.97;;;2.80;;
67979;SDS011;54760;47.490;19.030;2023-05-10T01:54:02;4.45;;;2.78;;
67979;SDS011;54760;47.490;19.030;2023-05-10T01:56:31;5.40;;;2.87;;
67979;SDS011;54760;47.490;19.030;2023-05-10T01:58:58;6.93;;;2.90;;
67979;SDS011;54760;47.490;19.030;2023-05-10T02:01:28;5.53;;;2.70;;
67979;SDS011;54760;47.490;19.030;2023-05-10T02:03:55;3.92;;;2.70;;
67979;SDS011;54760;47.490;19.030;2023-05-10T02:06:23;3.90;;;3.00;;
67979;SDS011;54760;47.490;19.030;2023-05-10T02:08:50;4.12;;;2.50;;
67979;SDS011;54760;47.490;19.030;2023-05-10T02:11:18;7.70;;;2.92;;
67979;SDS011;54760;47.490;19.030;2023-05-10T02:13:46;5.45;;;2.62;;
67979;SDS011;54760;47.490;19.030;2023-05-10T02:16:14;3.42;;;2.70;;
67979;SDS011;54760;47.490;19.030;2023-05-10T02:18:41;3.78;;;2.87;;
67979;SDS011;54760;47.490;19.030;2023-05-10T02:21:08;4.47;;;2.67;;
67979;SDS011;54760;47.490;19.030;2023-05-10T02:23:35;5.15;;;2.72;;
67979;SDS011;54760;47.490;19.030;2023-05-10T02:26:02;7.15;;;3.20;;
67979;SDS011;54760;47.490;19.030;2023-05-10T02:28:30;3.60;;;2.80;;
67979;SDS011;54760;47.490;19.030;2023-05-10T02:30:58;4.65;;;2.65;;
67979;SDS011;54760;47.490;19.030;2023-05-10T02:33:23;6.00;;;2.87;;
67979;SDS011;54760;47.490;19.030;2023-05-10T02:35:50;3.95;;;2.70;;
67979;SDS011;54760;47.490;19.030;2023-05-10T02:38:16;3.40;;;2.75;;
67979;SDS011;54760;47.490;19.030;2023-05-10T02:40:45;4.53;;;2.70;;
67979;SDS011;54760;47.490;19.030;2023-05-10T02:43:13;3.50;;;2.75;;
67979;SDS011;54760;47.490;19.030;2023-05-10T02:45:41;3.78;;;2.80;;
67979;SDS011;54760;47.490;19.030;2023-05-10T02:48:08;4.05;;;2.80;;
67979;SDS011;54760;47.490;19.030;2023-05-10T02:50:34;4.85;;;2.95;;
67979;SDS011;54760;47.490;19.030;2023-05-10T02:53:01;3.28;;;2.50;;
67979;SDS011;54760;47.490;19.030;2023-05-10T02:55:32;4.62;;;2.65;;
67979;SDS011;54760;47.490;19.030;2023-05-10T02:58:03;3.95;;;2.85;;
67979;SDS011;54760;47.490;19.030;2023-05-10T03:00:28;3.17;;;2.50;;
67979;SDS011;54760;47.490;19.030;2023-05-10T03:02:54;3.97;;;2.95;;
67979;SDS011;54760;47.490;19.030;2023-05-10T03:05:20;3.75;;;2.72;;
67979;SDS011;54760;47.490;19.030;2023-05-10T03:07:46;3.65;;;3.05;;
67979;SDS011;54760;47.490;19.030;2023-05-10T03:10:12;3.65;;;2.60;;
67979;SDS011;54760;47.490;19.030;2023-05-10T03:15:14;3.35;;;2.85;;
67979;SDS011;54760;47.490;19.030;2023-05-10T03:17:49;5.62;;;3.08;;
67979;SDS011;54760;47.490;19.030;2023-05-10T03:20:21;3.78;;;2.83;;
67979;SDS011;54760;47.490;19.030;2023-05-10T03:22:55;5.72;;;2.92;;
67979;SDS011;54760;47.490;19.030;2023-05-10T03:25:26;3.28;;;2.62;;
67979;SDS011;54760;47.490;19.030;2023-05-10T03:27:52;5.07;;;2.95;;
67979;SDS011;54760;47.490;19.030;2023-05-10T03:30:18;5.37;;;2.80;;
67979;SDS011;54760;47.490;19.030;2023-05-10T03:32:44;3.20;;;2.90;;
67979;SDS011;54760;47.490;19.030;2023-05-10T03:35:10;5.45;;;3.03;;
67979;SDS011;54760;47.490;19.030;2023-05-10T03:37:38;3.87;;;3.10;;
67979;SDS011;54760;47.490;19.030;2023-05-10T03:40:03;4.72;;;2.92;;
67979;SDS011;54760;47.490;19.030;2023-05-10T03:42:30;3.65;;;2.80;;
67979;SDS011;54760;47.490;19.030;2023-05-10T03:44:55;4.07;;;2.72;;
67979;SDS011;54760;47.490;19.030;2023-05-10T03:47:20;4.07;;;2.90;;
67979;SDS011;54760;47.490;19.030;2023-05-10T03:49:46;6.18;;;3.20;;
67979;SDS011;54760;47.490;19.030;2023-05-10T03:52:11;6.43;;;3.05;;
67979;SDS011;54760;47.490;19.030;2023-05-10T03:54:37;4.20;;;2.67;;
67979;SDS011;54760;47.490;19.030;2023-05-10T03:57:03;4.47;;;3.17;;
67979;SDS011;54760;47.490;19.030;2023-05-10T03:59:28;4.12;;;3.20;;
67979;SDS011;54760;47.490;19.030;2023-05-10T04:01:54;4.50;;;3.03;;
67979;SDS011;54760;47.490;19.030;2023-05-10T04:04:20;4.45;;;3.20;;
67979;SDS011;54760;47.490;19.030;2023-05-10T04:06:46;5.65;;;3.15;;
67979;SDS011;54760;47.490;19.030;2023-05-10T04:09:11;7.53;;;3.37;;
67979;SDS011;54760;47.490;19.030;2023-05-10T04:11:37;7.75;;;3.30;;
67979;SDS011;54760;47.490;19.030;2023-05-10T04:14:02;4.03;;;2.90;;
67979;SDS011;54760;47.490;19.030;2023-05-10T04:16:28;4.15;;;3.10;;
67979;SDS011;54760;47.490;19.030;2023-05-10T04:18:53;3.80;;;3.20;;
67979;SDS011;54760;47.490;19.030;2023-05-10T04:21:19;5.70;;;3.20;;
67979;SDS011;54760;47.490;19.030;2023-05-10T04:23:44;4.85;;;3.42;;
67979;SDS011;54760;47.490;19.030;2023-05-10T04:26:10;3.85;;;3.05;;
67979;SDS011;54760;47.490;19.030;2023-05-10T04:28:35;3.92;;;3.08;;
67979;SDS011;54760;47.490;19.030;2023-05-10T04:31:05;6.90;;;3.33;;
67979;SDS011;54760;47.490;19.030;2023-05-10T04:33:32;6.45;;;3.25;;
67979;SDS011;54760;47.490;19.030;2023-05-10T04:35:58;4.70;;;3.08;;
67979;SDS011;54760;47.490;19.030;2023-05-10T04:38:23;8.63;;;3.60;;
67979;SDS011;54760;47.490;19.030;2023-05-10T04:40:49;8.15;;;3.67;;
67979;SDS011;54760;47.490;19.030;2023-05-10T04:43:15;6.62;;;3.35;;
67979;SDS011;54760;47.490;19.030;2023-05-10T04:45:40;4.95;;;3.35;;
67979;SDS011;54760;47.490;19.030;2023-05-10T04:48:05;4.65;;;3.30;;
67979;SDS011;54760;47.490;19.030;2023-05-10T04:50:31;5.70;;;3.50;;
67979;SDS011;54760;47.490;19.030;2023-05-10T04:52:56;4.03;;;3.17;;
67979;SDS011;54760;47.490;19.030;2023-05-10T04:55:22;4.97;;;3.40;;
67979;SDS011;54760;47.490;19.030;2023-05-10T04:57:48;3.60;;;3.08;;
67979;SDS011;54760;47.490;19.030;2023-05-10T05:00:14;5.55;;;3.33;;
67979;SDS011;54760;47.490;19.030;2023-05-10T05:02:43;7.87;;;3.80;;
67979;SDS011;54760;47.490;19.030;2023-05-10T05:05:12;7.82;;;3.70;;
67979;SDS011;54760;47.490;19.030;2023-05-10T05:07:38;4.75;;;3.42;;
67979;SDS011;54760;47.490;19.030;2023-05-10T05:10:07;8.88;;;3.50;;
67979;SDS011;54760;47.490;19.030;2023-05-10T05:12:33;7.22;;;3.80;;
67979;SDS011;54760;47.490;19.030;2023-05-10T05:14:59;5.80;;;3.95;;
67979;SDS011;54760;47.490;19.030;2023-05-10T05:17:25;6.22;;;3.60;;
67979;SDS011;54760;47.490;19.030;2023-05-10T05:19:50;4.50;;;3.65;;
67979;SDS011;54760;47.490;19.030;2023-05-10T05:22:16;14.45;;;3.83;;
67979;SDS011;54760;47.490;19.030;2023-05-10T05:24:41;5.10;;;3.50;;
67979;SDS011;54760;47.490;19.030;2023-05-10T05:27:07;5.95;;;3.40;;
67979;SDS011;54760;47.490;19.030;2023-05-10T05:29:32;6.80;;;3.72;;
67979;SDS011;54760;47.490;19.030;2023-05-10T05:31:58;4.75;;;3.37;;
67979;SDS011;54760;47.490;19.030;2023-05-10T05:34:24;4.72;;;3.35;;
67979;SDS011;54760;47.490;19.030;2023-05-10T05:36:50;6.20;;;3.65;;
67979;SDS011;54760;47.490;19.030;2023-05-10T05:39:15;3.95;;;3.17;;
67979;SDS011;54760;47.490;19.030;2023-05-10T05:41:40;5.25;;;3.50;;
67979;SDS011;54760;47.490;19.030;2023-05-10T05:44:06;5.37;;;3.90;;
67979;SDS011;54760;47.490;19.030;2023-05-10T05:46:31;9.80;;;4.05;;
67979;SDS011;54760;47.490;19.030;2023-05-10T05:48:57;8.32;;;3.47;;
67979;SDS011;54760;47.490;19.030;2023-05-10T05:51:22;6.30;;;3.53;;
67979;SDS011;54760;47.490;19.030;2023-05-10T05:53:48;8.18;;;3.65;;
67979;SDS011;54760;47.490;19.030;2023-05-10T05:56:13;7.22;;;3.50;;
67979;SDS011;54760;47.490;19.030;2023-05-10T05:58:38;9.27;;;3.70;;
67979;SDS011;54760;47.490;19.030;2023-05-10T06:01:04;4.30;;;3.22;;
67979;SDS011;54760;47.490;19.030;2023-05-10T06:03:29;6.43;;;3.20;;
67979;SDS011;54760;47.490;19.030;2023-05-10T06:05:55;5.40;;;2.97;;
67979;SDS011;54760;47.490;19.030;2023-05-10T06:08:20;6.07;;;3.50;;
67979;SDS011;54760;47.490;19.030;2023-05-10T06:10:46;4.22;;;3.00;;
67979;SDS011;54760;47.490;19.030;2023-05-10T06:13:11;5.43;;;2.90;;
67979;SDS011;54760;47.490;19.030;2023-05-10T06:15:37;5.78;;;3.53;;
67979;SDS011;54760;47.490;19.030;2023-05-10T06:18:03;7.62;;;3.35;;
67979;SDS011;54760;47.490;19.030;2023-05-10T06:20:29;4.37;;;3.08;;
67979;SDS011;54760;47.490;19.030;2023-05-10T06:22:56;5.07;;;3.08;;
67979;SDS011;54760;47.490;19.030;2023-05-10T06:25:22;5.15;;;3.12;;
67979;SDS011;54760;47.490;19.030;2023-05-10T06:27:48;4.30;;;3.15;;
67979;SDS011;54760;47.490;19.030;2023-05-10T06:30:13;6.12;;;3.25;;
67979;SDS011;54760;47.490;19.030;2023-05-10T06:32:40;7.50;;;2.85;;
67979;SDS011;54760;47.490;19.030;2023-05-10T06:35:06;4.95;;;3.10;;
67979;SDS011;54760;47.490;19.030;2023-05-10T06:37:33;5.62;;;3.35;;
67979;SDS011;54760;47.490;19.030;2023-05-10T06:39:59;6.10;;;3.45;;
67979;SDS011;54760;47.490;19.030;2023-05-10T06:42:25;4.82;;;3.55;;
67979;SDS011;54760;47.490;19.030;2023-05-10T06:44:52;3.30;;;2.92;;
67979;SDS011;54760;47.490;19.030;2023-05-10T06:47:17;4.70;;;3.20;;
67979;SDS011;54760;47.490;19.030;2023-05-10T06:49:42;5.28;;;3.47;;
67979;SDS011;54760;47.490;19.030;2023-05-10T06:52:08;5.30;;;3.42;;
67979;SDS011;54760;47.490;19.030;2023-05-10T06:54:33;4.18;;;3.20;;
67979;SDS011;54760;47.490;19.030;2023-05-10T06:56:59;6.62;;;3.35;;
67979;SDS011;54760;47.490;19.030;2023-05-10T06:59:24;4.05;;;3.20;;
67979;SDS011;54760;47.490;19.030;2023-05-10T07:01:50;5.30;;;3.40;;
67979;SDS011;54760;47.490;19.030;2023-05-10T07:04:16;4.18;;;2.97;;
67979;SDS011;54760;47.490;19.030;2023-05-10T07:06:42;6.57;;;3.53;;
67979;SDS011;54760;47.490;19.030;2023-05-10T07:09:08;6.47;;;4.10;;
67979;SDS011;54760;47.490;19.030;2023-05-10T07:11:33;4.47;;;3.53;;
67979;SDS011;54760;47.490;19.030;2023-05-10T07:13:59;7.80;;;3.60;;
67979;SDS011;54760;47.490;19.030;2023-05-10T07:16:24;5.90;;;3.87;;
67979;SDS011;54760;47.490;19.030;2023-05-10T07:18:50;8.77;;;3.78;;
67979;SDS011;54760;47.490;19.030;2023-05-10T07:21:15;6.47;;;3.70;;
67979;SDS011;54760;47.490;19.030;2023-05-10T07:23:41;5.37;;;3.50;;
67979;SDS011;54760;47.490;19.030;2023-05-10T07:26:06;6.62;;;3.67;;
67979;SDS011;54760;47.490;19.030;2023-05-10T07:28:32;7.07;;;3.70;;
67979;SDS011;54760;47.490;19.030;2023-05-10T07:30:57;8.48;;;4.18;;
67979;SDS011;54760;47.490;19.030;2023-05-10T07:33:23;5.40;;;3.35;;
67979;SDS011;54760;47.490;19.030;2023-05-10T07:35:49;5.95;;;3.40;;
67979;SDS011;54760;47.490;19.030;2023-05-10T07:38:15;4.55;;;2.78;;
67979;SDS011;54760;47.490;19.030;2023-05-10T07:40:40;4.03;;;2.90;;
67979;SDS011;54760;47.490;19.030;2023-05-10T07:43:06;5.32;;;2.95;;
67979;SDS011;54760;47.490;19.030;2023-05-10T07:45:31;5.28;;;3.40;;
67979;SDS011;54760;47.490;19.030;2023-05-10T07:47:57;4.30;;;2.97;;
67979;SDS011;54760;47.490;19.030;2023-05-10T07:50:22;5.15;;;3.08;;
67979;SDS011;54760;47.490;19.030;2023-05-10T07:52:48;4.45;;;3.40;;
67979;SDS011;54760;47.490;19.030;2023-05-10T07:55:13;6.12;;;3.30;;
67979;SDS011;54760;47.490;19.030;2023-05-10T07:57:39;4.72;;;3.05;;
67979;SDS011;54760;47.490;19.030;2023-05-10T08:00:05;4.32;;;3.05;;
67979;SDS011;54760;47.490;19.030;2023-05-10T08:02:32;3.75;;;2.97;;
67979;SDS011;54760;47.490;19.030;2023-05-10T08:04:57;3.40;;;3.05;;
67979;SDS011;54760;47.490;19.030;2023-05-10T08:07:24;3.62;;;2.62;;
67979;SDS011;54760;47.490;19.030;2023-05-10T08:09:49;3.03;;;2.65;;
67979;SDS011;54760;47.490;19.030;2023-05-10T08:12:14;5.43;;;2.78;;
67979;SDS011;54760;47.490;19.030;2023-05-10T08:14:40;4.43;;;2.87;;
67979;SDS011;54760;47.490;19.030;2023-05-10T08:17:06;5.32;;;3.00;;
67979;SDS011;54760;47.490;19.030;2023-05-10T08:19:31;5.40;;;3.10;;
67979;SDS011;54760;47.490;19.030;2023-05-10T08:21:57;6.95;;;2.80;;
67979;SDS011;54760;47.490;19.030;2023-05-10T08:24:22;5.22;;;2.65;;
67979;SDS011;54760;47.490;19.030;2023-05-10T08:26:48;7.43;;;2.85;;
67979;SDS011;54760;47.490;19.030;2023-05-10T08:29:13;4.22;;;2.97;;
67979;SDS011;54760;47.490;19.030;2023-05-10T08:31:39;3.90;;;2.87;;
67979;SDS011;54760;47.490;19.030;2023-05-10T08:34:05;5.35;;;2.95;;
67979;SDS011;54760;47.490;19.030;2023-05-10T08:36:31;6.43;;;3.10;;
67979;SDS011;54760;47.490;19.030;2023-05-10T08:38:57;4.00;;;3.00;;
67979;SDS011;54760;47.490;19.030;2023-05-10T08:41:23;3.58;;;3.00;;
67979;SDS011;54760;47.490;19.030;2023-05-10T08:43:51;3.35;;;2.65;;
67979;SDS011;54760;47.490;19.030;2023-05-10T08:46:18;6.30;;;3.00;;
67979;SDS011;54760;47.490;19.030;2023-05-10T08:48:45;4.57;;;2.67;;
67979;SDS011;54760;47.490;19.030;2023-05-10T08:51:18;6.20;;;2.90;;
67979;SDS011;54760;47.490;19.030;2023-05-10T08:53:46;3.62;;;2.62;;
67979;SDS011;54760;47.490;19.030;2023-05-10T08:56:12;6.37;;;2.87;;
67979;SDS011;54760;47.490;19.030;2023-05-10T08:58:38;5.45;;;2.85;;
67979;SDS011;54760;47.490;19.030;2023-05-10T09:01:04;4.93;;;3.10;;
67979;SDS011;54760;47.490;19.030;2023-05-10T09:03:30;4.28;;;3.10;;
67979;SDS011;54760;47.490;19.030;2023-05-10T09:05:56;3.40;;;2.75;;
67979;SDS011;54760;47.490;19.030;2023-05-10T09:08:22;6.32;;;2.95;;
67979;SDS011;54760;47.490;19.030;2023-05-10T09:10:50;4.87;;;3.05;;
67979;SDS011;54760;47.490;19.030;2023-05-10T09:13:16;3.75;;;3.05;;
67979;SDS011;54760;47.490;19.030;2023-05-10T09:15:43;4.28;;;2.80;;
67979;SDS011;54760;47.490;19.030;2023-05-10T09:18:09;4.53;;;2.62;;
67979;SDS011;54760;47.490;19.030;2023-05-10T09:20:35;4.18;;;2.78;;
67979;SDS011;54760;47.490;19.030;2023-05-10T09:23:00;3.87;;;2.33;;
67979;SDS011;54760;47.490;19.030;2023-05-10T09:25:26;7.87;;;2.90;;
67979;SDS011;54760;47.490;19.030;2023-05-10T09:27:52;6.85;;;3.10;;
67979;SDS011;54760;47.490;19.030;2023-05-10T09:30:24;5.57;;;2.80;;
67979;SDS011;54760;47.490;19.030;2023-05-10T09:32:52;4.30;;;2.97;;
67979;SDS011;54760;47.490;19.030;2023-05-10T09:35:18;12.88;;;3.03;;
67979;SDS011;54760;47.490;19.030;2023-05-10T09:37:47;10.45;;;3.00;;
67979;SDS011;54760;47.490;19.030;2023-05-10T09:40:18;5.22;;;2.40;;
67979;SDS011;54760;47.490;19.030;2023-05-10T09:42:55;5.10;;;2.90;;
67979;SDS011;54760;47.490;19.030;2023-05-10T09:45:21;5.68;;;2.85;;
67979;SDS011;54760;47.490;19.030;2023-05-10T09:47:48;5.47;;;3.08;;
67979;SDS011;54760;47.490;19.030;2023-05-10T09:50:13;3.17;;;2.80;;
67979;SDS011;54760;47.490;19.030;2023-05-10T09:52:48;3.95;;;2.67;;
67979;SDS011;54760;47.490;19.030;2023-05-10T09:55:18;3.83;;;2.50;;
67979;SDS011;54760;47.490;19.030;2023-05-10T09:57:46;3.75;;;2.53;;
67979;SDS011;54760;47.490;19.030;2023-05-10T10:00:17;5.10;;;2.80;;
67979;SDS011;54760;47.490;19.030;2023-05-10T10:02:47;3.00;;;2.60;;
67979;SDS011;54760;47.490;19.030;2023-05-10T10:05:18;5.65;;;2.83;;
67979;SDS011;54760;47.490;19.030;2023-05-10T10:07:44;6.82;;;2.92;;
67979;SDS011;54760;47.490;19.030;2023-05-10T10:10:09;3.92;;;2.83;;
67979;SDS011;54760;47.490;19.030;2023-05-10T10:12:37;7.32;;;3.25;;
67979;SDS011;54760;47.490;19.030;2023-05-10T10:15:04;3.45;;;2.50;;
67979;SDS011;54760;47.490;19.030;2023-05-10T10:17:31;5.37;;;2.65;;
67979;SDS011;54760;47.490;19.030;2023-05-10T10:19:58;3.55;;;2.40;;
67979;SDS011;54760;47.490;19.030;2023-05-10T10:22:24;2.62;;;2.15;;
67979;SDS011;54760;47.490;19.030;2023-05-10T10:24:50;5.75;;;2.40;;
67979;SDS011;54760;47.490;19.030;2023-05-10T10:29:52;5.85;;;2.37;;
67979;SDS011;54760;47.490;19.030;2023-05-10T10:35:28;3.37;;;2.20;;
67979;SDS011;54760;47.490;19.030;2023-05-10T10:37:55;4.32;;;2.40;;
67979;SDS011;54760;47.490;19.030;2023-05-10T10:40:28;4.28;;;2.58;;
67979;SDS011;54760;47.490;19.030;2023-05-10T10:42:56;4.53;;;2.50;;
67979;SDS011;54760;47.490;19.030;2023-05-10T10:45:22;5.25;;;2.67;;
67979;SDS011;54760;47.490;19.030;2023-05-10T10:47:53;2.78;;;2.35;;
67979;SDS011;54760;47.490;19.030;2023-05-10T10:50:45;4.68;;;2.30;;
67979;SDS011;54760;47.490;19.030;2023-05-10T10:53:13;2.85;;;2.20;;
67979;SDS011;54760;47.490;19.030;2023-05-10T10:55:48;4.28;;;2.00;;
67979;SDS011;54760;47.490;19.030;2023-05-10T10:58:29;2.17;;;1.95;;
67979;SDS011;54760;47.490;19.030;2023-05-10T11:03:37;5.30;;;2.10;;
67979;SDS011;54760;47.490;19.030;2023-05-10T11:06:03;3.47;;;2.05;;
67979;SDS011;54760;47.490;19.030;2023-05-10T11:08:29;3.70;;;1.90;;
67979;SDS011;54760;47.490;19.030;2023-05-10T11:13:40;2.65;;;1.65;;
67979;SDS011;54760;47.490;19.030;2023-05-10T11:18:39;3.85;;;1.75;;
67979;SDS011;54760;47.490;19.030;2023-05-10T11:21:05;2.47;;;1.65;;
67979;SDS011;54760;47.490;19.030;2023-05-10T11:26:07;2.78;;;1.77;;
67979;SDS011;54760;47.490;19.030;2023-05-10T11:28:34;4.22;;;2.00;;
67979;SDS011;54760;47.490;19.030;2023-05-10T11:31:06;3.95;;;2.30;;
67979;SDS011;54760;47.490;19.030;2023-05-10T11:33:31;6.35;;;1.80;;
67979;SDS011;54760;47.490;19.030;2023-05-10T11:36:10;2.40;;;1.90;;
67979;SDS011;54760;47.490;19.030;2023-05-10T11:38:36;2.70;;;1.70;;
67979;SDS011;54760;47.490;19.030;2023-05-10T11:41:02;4.28;;;1.95;;
67979;SDS011;54760;47.490;19.030;2023-05-10T11:43:27;3.30;;;1.62;;
67979;SDS011;54760;47.490;19.030;2023-05-10T11:45:56;5.15;;;1.70;;
67979;SDS011;54760;47.490;19.030;2023-05-10T11:48:21;3.22;;;1.70;;
67979;SDS011;54760;47.490;19.030;2023-05-10T11:50:49;2.22;;;1.55;;
67979;SDS011;54760;47.490;19.030;2023-05-10T11:53:14;2.62;;;1.80;;
67979;SDS011;54760;47.490;19.030;2023-05-10T11:55:40;7.65;;;1.75;;
67979;SDS011;54760;47.490;19.030;2023-05-10T11:58:05;3.00;;;2.03;;
67979;SDS011;54760;47.490;19.030;2023-05-10T12:00:31;3.20;;;1.92;;
67979;SDS011;54760;47.490;19.030;2023-05-10T12:02:56;2.87;;;2.00;;
67979;SDS011;54760;47.490;19.030;2023-05-10T12:05:22;9.23;;;2.17;;
67979;SDS011;54760;47.490;19.030;2023-05-10T12:07:48;4.10;;;2.05;;
67979;SDS011;54760;47.490;19.030;2023-05-10T12:10:13;6.97;;;1.90;;
67979;SDS011;54760;47.490;19.030;2023-05-10T12:12:46;3.85;;;1.77;;
67979;SDS011;54760;47.490;19.030;2023-05-10T12:15:18;5.97;;;1.80;;
67979;SDS011;54760;47.490;19.030;2023-05-10T12:17:46;3.08;;;1.65;;
67979;SDS011;54760;47.490;19.030;2023-05-10T12:20:12;2.20;;;1.40;;
67979;SDS011;54760;47.490;19.030;2023-05-10T12:22:44;5.82;;;1.80;;
67979;SDS011;54760;47.490;19.030;2023-05-10T12:25:20;2.45;;;1.60;;
67979;SDS011;54760;47.490;19.030;2023-05-10T12:27:48;4.20;;;1.80;;
67979;SDS011;54760;47.490;19.030;2023-05-10T12:30:23;3.87;;;1.80;;
67979;SDS011;54760;47.490;19.030;2023-05-10T12:32:51;2.80;;;1.80;;
67979;SDS011;54760;47.490;19.030;2023-05-10T12:35:16;2.28;;;1.70;;
67979;SDS011;54760;47.490;19.030;2023-05-10T12:37:46;3.85;;;1.80;;
67979;SDS011;54760;47.490;19.030;2023-05-10T12:40:11;2.85;;;1.50;;
67979;SDS011;54760;47.490;19.030;2023-05-10T12:42:37;6.55;;;1.90;;
67979;SDS011;54760;47.490;19.030;2023-05-10T12:45:06;3.05;;;2.00;;
67979;SDS011;54760;47.490;19.030;2023-05-10T12:47:33;3.53;;;1.95;;
67979;SDS011;54760;47.490;19.030;2023-05-10T12:50:00;2.95;;;1.65;;
67979;SDS011;54760;47.490;19.030;2023-05-10T12:52:26;4.80;;;1.70;;
67979;SDS011;54760;47.490;19.030;2023-05-10T12:54:52;3.25;;;1.60;;
67979;SDS011;54760;47.490;19.030;2023-05-10T12:57:18;4.65;;;2.10;;
67979;SDS011;54760;47.490;19.030;2023-05-10T12:59:43;2.72;;;1.77;;
67979;SDS011;54760;47.490;19.030;2023-05-10T13:02:09;3.72;;;1.80;;
67979;SDS011;54760;47.490;19.030;2023-05-10T13:04:35;4.10;;;1.40;;
67979;SDS011;54760;47.490;19.030;2023-05-10T13:07:04;2.87;;;1.50;;
67979;SDS011;54760;47.490;19.030;2023-05-10T13:09:30;2.65;;;1.35;;
67979;SDS011;54760;47.490;19.030;2023-05-10T13:11:55;1.73;;;1.30;;
67979;SDS011;54760;47.490;19.030;2023-05-10T13:14:21;4.95;;;1.50;;
67979;SDS011;54760;47.490;19.030;2023-05-10T13:16:46;2.65;;;1.52;;
67979;SDS011;54760;47.490;19.030;2023-05-10T13:19:12;2.00;;;1.50;;
67979;SDS011;54760;47.490;19.030;2023-05-10T13:21:38;5.28;;;1.33;;
67979;SDS011;54760;47.490;19.030;2023-05-10T13:24:05;4.15;;;2.00;;
67979;SDS011;54760;47.490;19.030;2023-05-10T13:26:31;1.92;;;1.35;;
67979;SDS011;54760;47.490;19.030;2023-05-10T13:28:57;2.20;;;1.40;;
67979;SDS011;54760;47.490;19.030;2023-05-10T13:31:22;6.45;;;1.55;;
67979;SDS011;54760;47.490;19.030;2023-05-10T13:33:48;2.25;;;1.25;;
67979;SDS011;54760;47.490;19.030;2023-05-10T13:36:13;1.80;;;1.42;;
67979;SDS011;54760;47.490;19.030;2023-05-10T13:38:39;3.90;;;1.50;;
67979;SDS011;54760;47.490;19.030;2023-05-10T13:41:04;4.25;;;1.60;;
67979;SDS011;54760;47.490;19.030;2023-05-10T13:43:30;2.87;;;1.45;;
67979;SDS011;54760;47.490;19.030;2023-05-10T13:45:55;3.92;;;1.40;;
67979;SDS011;54760;47.490;19.030;2023-05-10T13:48:21;2.55;;;1.60;;
67979;SDS011;54760;47.490;19.030;2023-05-10T13:50:46;7.65;;;1.50;;
67979;SDS011;54760;47.490;19.030;2023-05-10T13:53:12;1.80;;;1.33;;
67979;SDS011;54760;47.490;19.030;2023-05-10T13:55:37;4.65;;;1.60;;
67979;SDS011;54760;47.490;19.030;2023-05-10T13:58:03;2.30;;;1.40;;
67979;SDS011;54760;47.490;19.030;2023-05-10T14:00:29;2.80;;;1.15;;
67979;SDS011;54760;47.490;19.030;2023-05-10T14:02:54;3.05;;;1.40;;
67979;SDS011;54760;47.490;19.030;2023-05-10T14:05:19;2.85;;;1.40;;
67979;SDS011;54760;47.490;19.030;2023-05-10T14:07:45;2.10;;;1.40;;
67979;SDS011;54760;47.490;19.030;2023-05-10T14:10:11;3.80;;;1.45;;
67979;SDS011;54760;47.490;19.030;2023-05-10T14:12:36;3.78;;;1.50;;
67979;SDS011;54760;47.490;19.030;2023-05-10T14:15:02;3.15;;;1.27;;
67979;SDS011;54760;47.490;19.030;2023-05-10T14:17:30;2.58;;;1.42;;
67979;SDS011;54760;47.490;19.030;2023-05-10T14:19:56;2.78;;;1.33;;
67979;SDS011;54760;47.490;19.030;2023-05-10T14:22:22;3.97;;;1.30;;
67979;SDS011;54760;47.490;19.030;2023-05-10T14:24:47;3.87;;;1.20;;
67979;SDS011;54760;47.490;19.030;2023-05-10T14:27:13;1.80;;;1.30;;
67979;SDS011;54760;47.490;19.030;2023-05-10T14:29:39;5.65;;;1.65;;
67979;SDS011;54760;47.490;19.030;2023-05-10T14:32:04;1.30;;;0.93;;
67979;SDS011;54760;47.490;19.030;2023-05-10T14:34:30;6.32;;;1.58;;
67979;SDS011;54760;47.490;19.030;2023-05-10T14:36:55;1.48;;;1.20;;
67979;SDS011;54760;47.490;19.030;2023-05-10T14:39:21;2.83;;;1.30;;
67979;SDS011;54760;47.490;19.030;2023-05-10T14:41:47;9.10;;;1.45;;
67979;SDS011;54760;47.490;19.030;2023-05-10T14:44:13;5.80;;;3.60;;
67979;SDS011;54760;47.490;19.030;2023-05-10T14:46:40;2.42;;;1.40;;
67979;SDS011;54760;47.490;19.030;2023-05-10T14:49:06;4.95;;;1.60;;
67979;SDS011;54760;47.490;19.030;2023-05-10T14:51:32;2.12;;;1.50;;
67979;SDS011;54760;47.490;19.030;2023-05-10T14:53:57;4.57;;;1.65;;
67979;SDS011;54760;47.490;19.030;2023-05-10T14:56:23;7.20;;;1.40;;
67979;SDS011;54760;47.490;19.030;2023-05-10T14:58:49;1.70;;;1.20;;
67979;SDS011;54760;47.490;19.030;2023-05-10T15:01:15;3.15;;;1.50;;
67979;SDS011;54760;47.490;19.030;2023-05-10T15:03:40;4.30;;;1.50;;